AirNav   Everest Fuels
 
 350 users online  

64MN Svard Heliport
Plymouth, Minnesota, USA

GOING TO PLYMOUTH?


FAA INFORMATION EFFECTIVE 03 DECEMBER 2020

Location

FAA Identifier: 64MN
Lat/Long: 45-02-34.2000N 093-25-57.8000W
45-02.570000N 093-25.963333W
45.0428333,-93.4327222
(estimated)
Elevation: 902 ft. / 275 m
From city: 4 miles NE of PLYMOUTH, MN
Time zone: UTC -6 (UTC -5 during Daylight Saving Time)
Zip code: 55442

Heliport Operations

Heliport use: Private use. Permission required prior to landing
Activation date: 02/2004
Control tower: no
ARTCC: MINNEAPOLIS CENTER
FSS: PRINCETON FLIGHT SERVICE STATION
Attendance: UNATNDD
Wind indicator: yes
Segmented circle: no

Heliport Communications

WX ASOS at MIC (4 nm E): 125.7 (763-531-2343)
WX AWOS-3 at ANE (11 nm NE): 120.625 (763-780-9025)
WX ASOS at FCM (13 nm S): 124.9 (952-941-4156)
WX ASOS at MSP (13 nm SE): 135.35 (612-713-4174)
WX ASOS at STP (17 nm E): 118.35 (651-312-8888)
WX AWOS-3 at CFE (19 nm W): 120.45 (763-684-0762)

Nearby radio navigation aids

VOR radial/distance  VOR name  Freq  Var
GEPr196/6.7GOPHER VORTAC117.3006E
MSPr315/12.1MINNEAPOLIS VOR/DME115.3002E
FCMr001/13.1FLYING CLOUD VOR/DME117.7001E
FGTr331/26.9FARMINGTON VORTAC115.7006E

 
NDB name  Hdg/Dist  Freq  Var  ID
HOPEY293/23.240003EPPI .--. .--. ..
CAMBRIDGE192/31.735001ECBG -.-. -... --.
PRINCETON164/32.236803EPNM .--. -. --
GLENCOE056/32.540703EGYL --. -.-- .-..

Heliport Services

Runway Information

Helipad H1

Dimensions: 11 x 11 ft. / 3 x 3 m
Surface: wood
Runway edge lights: FLD
Traffic pattern: leftleft

Heliport Ownership and Management from official FAA records

Ownership: Privately-owned
Owner: TRYGVE SVARD
13855 56TH AVE N
MINNEAPOLIS, MN 55446-3054
Phone 763-383-1118
Manager: TRYGVE SVARD
13855 56TH AVE N
MINNEAPOLIS, MN 55446-3054
Phone 763-383-1118

Additional Remarks

A52-H1 40FT BLDG 60 FT N, 35 FT TREE 55 FT W, AND 35 FT TREE 55 FT E.
FOR CD CTC MINNEAPOLIS ARTCC AT 651-463-5588.

Instrument Procedures

There are no published instrument procedures at 64MN.

Some nearby airports with instrument procedures:

KMIC - Crystal Airport (4 nm E)
KANE - Anoka County-Blaine Airport (Janes Field) (11 nm NE)
KFCM - Flying Cloud Airport (13 nm S)
KMSP - Minneapolis-St Paul International/Wold-Chamberlain Airport (13 nm SE)
KSTP - St Paul Downtown Airport Holman Field (17 nm E)
KCFE - Buffalo Municipal Airport (19 nm W)
 
Loc | Ops | Rwys | IFR | FBO | Links
Com | Nav | Svcs | Stats | Notes
Area around 64MN (Svard Heliport)
 
Road maps at: MapQuest Bing Google
 
Aerial photo
No photo
 
Sectional chart

 
Airport distance calculator
Flying to Svard Heliport? Find the distance to fly.

From to 64MN

Sunrise and sunset
Times for 03-Dec-2020
 Local
(UTC-6)
 Zulu
(UTC)
Morning civil twilight07:0313:03
Sunrise07:3613:36
Sunset16:3222:32
Evening civil twilight17:0523:05

Current date and time
Zulu (UTC)  03-Dec-2020 09:57:20
Local (UTC-6)  03-Dec-2020 03:57:20
 
METAR
KMIC 
4nm E 
030953Z AUTO 24006KT 10SM CLR M02/M04 A3014 RMK AO2 SLP217 T10171039
KANE 
11nm NE 
030955Z AUTO 23005KT 10SM CLR M01/M03 A3014 RMK AO2
KFCM 
13nm S 
030953Z AUTO 24006KT 10SM CLR M03/M04 A3016 RMK AO2 SLP224 T10281044
KMSP 
13nm SE 
030953Z 25007KT 10SM BKN250 M02/M03 A3017 RMK AO2 SLP225 T10171033
KSGS 
17nm SE 
030955Z AUTO 25009KT 10SM CLR M01/M02 A3016 RMK AO2 T10081025 PWINO
KSTP 
18nm E 
030953Z 26005KT 10SM CLR M01/M04 A3017 RMK AO2 SLP223 T10111039
KCFE 
19nm W 
030935Z 10SM CLR M03/M05 A3017 RMK AO2 T10331048
TAF
KMSP 
13nm SE 
030649Z 0307/0412 29008KT P6SM BKN022 FM030800 28006KT P6SM SCT180 FM041000 31005KT P6SM FEW250
NOTAMs
Click for the latest NOTAMs
NOTAMs are issued by the DoD/FAA and will open in a separate window not controlled by AirNav.

 

 
 

Would you like to see your business listed on this page?

 If your business provides an interesting product or service to pilots, flight crews, aircraft, or users of the Svard Heliport, you should consider listing it here.  To start the listing process, click on the button below
 
Add a business
 

Other Pages about Svard Heliport

Update a link
 
Copyright © AirNav, LLC. All rights reserved. Privacy Policy  Contact